Skip to main content

NOAA/GLERL Met Station at Muskegon, MI

Previous 5 days (top of hour only)
See also Previous 3 Hours (2 minute increments)
Jump down to Data
Switch to [English][Metric]
Zoom: Click and drag, Pan: shift-click and drag, Unzoom: double-click, Unzoom All






Note: Speed = mean wind during 2-minute period at top of hour,
Gust = max wind during 2-minute period at top of hour,
Peak = max wind during entire hour.
• See also 5-day windrose plot


NOAA/GLERL Met Station at Muskegon, MI

Previous 5 days (top of hour only)
See also Previous 3 Hours (2 minute increments)
Jump up to Graphs
Switch to [English][Metric]
                  Wind  Wind  Wind   Air   Dew   Rel     Sta   PAR
                   Spd   Gst   Dir  Temp    Pt   Hum    Pres uE/m2/
YYYY-MM-DD   EDT   kts   kts   deg     F     F     %   in Hg   sec
2017-07-22 12:00  10.3  11.3   304  69.8  69.8  99.9   29.16  1403
2017-07-22 11:00   9.5  10.5   288  70.0  70.0  99.9   29.16   745
2017-07-22 10:00  10.1  10.9   218  70.2  70.1  99.9   29.15   265
2017-07-22 09:00  10.7  11.7   183  70.5  69.9  97.9   29.16   143
2017-07-22 08:00   7.0   8.9   167  70.5  69.0  95.0   29.16   121
2017-07-22 07:00   4.7   7.2   136  70.2  68.1  93.0   29.14    24
2017-07-22 06:00   7.2   9.1   128  70.2  67.6  91.3   29.15     2
2017-07-22 05:00   6.6   7.6   114  70.5  67.6  90.4   29.18     2
2017-07-22 04:00   6.0   7.8   121  71.1  65.0  81.0   29.20     2
2017-07-22 03:00   7.6   9.7   113  72.0  64.2  76.3   29.22     2
2017-07-22 02:00   9.1  11.1   119  71.4  61.4  70.2   29.24     2
2017-07-22 01:00  10.1  13.0   199  70.9  70.6  99.1   29.29     2
2017-07-22 00:00   7.0   7.6    88  73.9  71.6  92.3   29.27     2
2017-07-21 23:00   4.5   6.6   104  75.0  70.3  85.0   29.27     2
2017-07-21 22:00   6.2   7.2   121  75.6  70.7  84.6   29.25     2
2017-07-21 21:00   4.9   5.6   117  75.6  72.7  90.7   29.29    14
2017-07-21 20:00   4.9   6.0    96  76.3  71.0  83.5   29.29    79
2017-07-21 19:00   3.3   4.5     3  73.9  70.5  88.9   29.33   384
2017-07-21 18:00   6.6   7.8   343  72.1  71.0  96.1   29.34   271
2017-07-21 17:00   5.6   6.0   320  72.9  71.3  94.7   29.34   705
2017-07-21 16:00   3.1   3.3   230  73.4  70.9  91.8   29.33  1980
2017-07-21 15:00   3.3   4.7   220  72.0  70.1  93.7   29.34  1653
2017-07-21 14:00   5.4   6.8   218  72.5  69.8  91.2   29.35  2293
2017-07-21 13:00   9.5  10.3   235  69.4  69.4  99.9   29.37  2100
2017-07-21 12:00   6.6   7.2   226  71.1  69.6  94.9   29.37  1303
2017-07-21 11:00   4.5   4.9   212  73.0  70.8  92.5   29.34  1355
2017-07-21 10:00   2.3   3.1    89  78.3  70.3  76.2   29.34  1641
2017-07-21 09:00   3.3   4.1    78  74.5  70.4  86.9   29.35  1225
2017-07-21 08:00   3.1   4.1    85  70.5  69.4  96.2   29.35   347
2017-07-21 07:00   3.5   3.7   351  67.8  67.8  99.8   29.37   113
2017-07-21 06:00   1.6   1.9   268  67.6  67.5  99.6   29.36     2
2017-07-21 04:00   1.0   1.2   314  67.5  67.4  99.8   29.33     2
2017-07-21 03:00   1.9   2.1   319  68.2  68.2  99.9   29.34     2
2017-07-21 02:00   3.9   4.3   326  69.4  68.5  96.9   29.33     2
2017-07-21 01:00   4.3   4.7   323  69.3  68.6  97.6   29.33     2
2017-07-21 00:00   4.3   4.7   325  69.1  68.7  98.7   29.33     2
2017-07-20 23:00   3.3   3.7   308  68.4  68.3  99.9   29.33     2
2017-07-20 22:00   3.1   3.1   246  68.2  68.2  99.9   29.33     2
2017-07-20 21:00   2.5   2.9   239  70.0  69.3  97.7   29.33    92
2017-07-20 20:00   1.4   1.7   215  73.4  69.0  85.9   29.32  1263
2017-07-20 19:00   4.7   5.1   241  71.8  69.0  90.9   29.32  1715
2017-07-20 18:00   8.2   8.4   242  70.2  68.5  94.5   29.33  1942
2017-07-20 17:00   7.4   7.4   251  70.3  68.2  92.7   29.33  2076
2017-07-20 16:00   9.3  10.3   246  69.6  67.8  93.8   29.33  2105
2017-07-20 15:00   5.1   5.8   268  70.7  67.6  89.9   29.33  1713
2017-07-20 14:00   5.6   6.6   332  71.4  66.4  84.0   29.33  2160
2017-07-20 13:00   6.2   7.4   345  70.2  66.0  86.4   29.35  2372
2017-07-20 12:00   9.9  12.4   358  70.3  65.5  84.5   29.35  1500
2017-07-20 11:00   7.2   9.3     0  70.3  66.9  88.7   29.35  1915
2017-07-20 10:00   7.8  10.7   357  71.8  67.2  85.2   29.35  1832
2017-07-20 09:00   3.1   4.3     3  69.3  68.3  96.6   29.34   606
2017-07-20 08:00  10.5  11.7   314  67.8  66.8  96.5   29.36    85
2017-07-20 07:00   8.9  10.7   215  67.1  66.5  97.9   29.34    10
2017-07-20 06:00  11.3  12.2   241  65.8  64.6  95.7   29.33     2
2017-07-20 05:00  12.6  13.0   226  65.8  64.9  96.9   29.31     2
2017-07-20 04:00   5.1   7.0   218  65.7  63.0  91.0   29.34     2
2017-07-20 03:00   3.1   3.3   209  70.5  64.5  80.9   29.33     2
2017-07-20 02:00   8.4   9.5   177  69.6  60.2  71.5   29.31     2
2017-07-20 01:00   6.0   9.7   131  74.3  62.5  66.1   29.31     2
2017-07-20 00:00   9.7   9.9   193  65.1  63.9  95.8   29.38     2
2017-07-19 23:00   9.3   9.7   180  66.4  61.0  82.6   29.38     2
2017-07-19 22:00   2.1   2.3   105  69.8  59.6  69.7   29.39     2
2017-07-19 21:00   9.7  10.5   351  67.3  60.2  77.8   29.42    43
2017-07-19 20:00   4.3   4.9     1  71.4  63.6  76.0   29.41   727
2017-07-19 19:00  11.1  12.6   353  68.9  62.1  78.6   29.41  1024
2017-07-19 18:00  10.9  12.6   349  70.9  65.2  82.0   29.42  1935
2017-07-19 17:00  11.1  12.4   347  69.6  65.3  86.0   29.45  1722
2017-07-19 16:00   9.1  10.5   331  68.7  65.7  89.8   29.46  2094
2017-07-19 15:00  11.3  12.1   334  69.1  66.6  91.6   29.46  1353
2017-07-19 14:00  12.6  15.0   350  70.0  66.3  87.8   29.46  2119
2017-07-19 13:00  13.0  13.4   341  69.4  66.7  91.0   29.45  2104
2017-07-19 12:00  10.1  10.9   345  69.4  67.0  91.8   29.46  2087
2017-07-19 11:00   9.5  10.3   337  68.4  66.1  92.5   29.46  2285
2017-07-19 10:00   7.4   7.6   332  67.5  65.0  91.8   29.46  1865
2017-07-19 09:00   7.0   8.6   350  67.8  64.8  90.0   29.45  1636
2017-07-19 08:00   3.5   4.7   343  68.2  64.8  88.8   29.42  1073
2017-07-19 07:00   1.9   2.3    16  67.6  64.6  89.8   29.41   366
2017-07-19 06:00   3.1   3.7   339  67.3  64.8  91.6   29.41     3
2017-07-19 04:00   3.5   5.4   353  69.1  65.2  87.2   29.39     2
2017-07-19 03:00   8.4   8.9   205  69.3  64.4  84.2   29.39     2
2017-07-19 02:00   9.9  10.3   208  69.4  62.8  79.0   29.40     2
2017-07-19 01:00  12.2  12.8   194  69.4  62.0  76.8   29.39     2
2017-07-19 00:00  10.1  10.9   184  70.5  61.5  72.8   29.39     2
2017-07-18 23:00  13.0  13.4   187  69.3  61.1  75.0   29.40     2
2017-07-18 22:00  11.5  12.1   185  69.6  59.5  69.9   29.40     2
2017-07-18 21:00  11.9  12.6   183  69.1  61.4  76.3   29.39    72
2017-07-18 20:00  11.3  11.9   184  68.2  64.0  86.3   29.38   314
2017-07-18 19:00   7.8   8.7   194  71.6  65.0  79.3   29.39  1634
2017-07-18 18:00   8.9   9.9   198  70.9  64.8  80.7   29.39  1945
2017-07-18 17:00   8.7   9.7   199  71.2  65.1  80.8   29.41  2040
2017-07-18 16:00   7.2   7.6   200  71.8  64.8  78.3   29.42  2090
2017-07-18 15:00   6.6   7.6   197  71.2  65.3  81.1   29.44  1373
2017-07-18 14:00   6.4   6.8   213  68.5  65.1  88.5   29.44  2140
2017-07-18 13:00   3.1   3.5   266  66.9  64.5  91.8   29.46  2106
2017-07-18 12:00   3.5   3.7   211  68.7  63.6  83.4   29.46  2074
2017-07-18 11:00   2.5   2.7   255  66.2  63.5  90.9   29.46  2022
2017-07-18 10:00   3.5   4.3   201  66.6  62.6  86.8   29.44  1913
2017-07-18 09:00   3.5   4.3   201  62.4  61.5  96.9   29.44  1568
2017-07-18 08:00   2.3   2.7   182  59.4  59.1  99.0   29.41   532
2017-07-18 07:00   2.7   3.1   130  60.6  60.0  97.9   29.41   293
2017-07-18 06:00   5.2   5.4   109  61.5  61.2  98.8   29.41     3
2017-07-18 05:00   1.6   1.9     7  60.6  60.5  99.6   29.41     2
2017-07-18 04:00   2.9   3.3   312  60.8  60.7  99.7   29.41     2
2017-07-18 03:00   1.2   1.6   188  61.0  60.4  98.0   29.41     2
2017-07-18 02:00   3.3   3.7    96  64.9  63.1  93.6   29.41     2
2017-07-18 01:00   5.1   5.4    90  64.6  61.9  90.8   29.41     2
2017-07-18 00:00   4.9   5.1    69  65.8  62.1  87.7   29.41     2
2017-07-17 23:00   2.3   2.5    61  64.2  62.0  92.4   29.39     2
2017-07-17 22:00   1.9   2.3    48  63.9  60.9  90.0   29.38     2
2017-07-17 21:00   2.7   3.5    39  65.7  59.9  81.4   29.39   174
2017-07-17 20:00   7.6   8.6   353  64.6  58.2  79.4   29.39   860